SAJ881 WARR-WADD
Flight info
| Callsign | SAJ881 |
|---|---|
| Flight time | 0h 41m |
| Altitude | 25000 |
| Route | MOVMO |
| Aircraft | A20N/M-SDE2E3FGHIRWXY/LB1 |
Departure
| Time | 2026-04-28 05:54 |
|---|---|
| Airport | Juanda International Airport (WARR) |
Arrival
| Time | 2026-04-28 06:36 |
|---|---|
| Airport | Denpasar I Gusti Ngurah Rai International Airport (WADD) |
| Time | Latitude | Longitude | Altitude | Speed | Heading |
|---|---|---|---|---|---|
| 2026-04-28 05:40 | -7.37567 | 112.79347 | 9 ft | 0 kts | 9° |
| 2026-04-28 05:42 | -7.37569 | 112.79347 | 9 ft | 2 kts | 359° |
| 2026-04-28 05:42 | -7.37578 | 112.79347 | 9 ft | 0 kts | 319° |
| 2026-04-28 05:43 | -7.37581 | 112.79350 | 10 ft | 1 kts | 326° |
| 2026-04-28 05:43 | -7.37591 | 112.79356 | 12 ft | 5 kts | 344° |
| 2026-04-28 05:43 | -7.37611 | 112.79360 | 12 ft | 4 kts | 360° |
| 2026-04-28 05:43 | -7.37628 | 112.79358 | 11 ft | 2 kts | 17° |
| 2026-04-28 05:44 | -7.37644 | 112.79353 | 11 ft | 3 kts | 37° |
| 2026-04-28 05:44 | -7.37656 | 112.79334 | 9 ft | 3 kts | 72° |
| 2026-04-28 05:44 | -7.37657 | 112.79323 | 9 ft | 0 kts | 98° |
| 2026-04-28 05:47 | -7.37658 | 112.79327 | 9 ft | 4 kts | 98° |
| 2026-04-28 05:47 | -7.37668 | 112.79392 | 9 ft | 15 kts | 98° |
| 2026-04-28 05:47 | -7.37674 | 112.79445 | 9 ft | 3 kts | 88° |
| 2026-04-28 05:48 | -7.37701 | 112.79446 | 9 ft | 8 kts | 213° |
| 2026-04-28 05:48 | -7.37718 | 112.79441 | 9 ft | 0 kts | 191° |
| 2026-04-28 05:48 | -7.37733 | 112.79442 | 9 ft | 6 kts | 166° |
| 2026-04-28 05:49 | -7.37754 | 112.79484 | 9 ft | 10 kts | 80° |
| 2026-04-28 05:49 | -7.37769 | 112.79547 | 9 ft | 12 kts | 104° |
| 2026-04-28 05:49 | -7.37772 | 112.79596 | 9 ft | 2 kts | 102° |
| 2026-04-28 05:49 | -7.37783 | 112.79648 | 9 ft | 14 kts | 102° |
| 2026-04-28 05:50 | -7.37794 | 112.79718 | 9 ft | 3 kts | 87° |
| 2026-04-28 05:50 | -7.37799 | 112.79771 | 9 ft | 11 kts | 122° |
| 2026-04-28 05:50 | -7.37869 | 112.79796 | 9 ft | 14 kts | 185° |
| 2026-04-28 05:50 | -7.37949 | 112.79782 | 8 ft | 8 kts | 163° |
| 2026-04-28 05:51 | -7.37999 | 112.79837 | 8 ft | 14 kts | 112° |
| 2026-04-28 05:51 | -7.38000 | 112.79895 | 8 ft | 7 kts | 97° |
| 2026-04-28 05:51 | -7.38014 | 112.79965 | 9 ft | 13 kts | 108° |
| 2026-04-28 05:51 | -7.38047 | 112.80035 | 8 ft | 11 kts | 142° |
| 2026-04-28 05:52 | -7.38084 | 112.80041 | 9 ft | 3 kts | 200° |
| 2026-04-28 05:52 | -7.38121 | 112.80032 | 7 ft | 0 kts | 198° |
| 2026-04-28 05:53 | -7.38122 | 112.80032 | 7 ft | 0 kts | 198° |
| 2026-04-28 05:53 | -7.38160 | 112.80020 | 7 ft | 11 kts | 198° |
| 2026-04-28 05:53 | -7.38189 | 112.79996 | 6 ft | 6 kts | 262° |
| 2026-04-28 05:53 | -7.38181 | 112.79892 | 7 ft | 39 kts | 274° |
| 2026-04-28 05:54 | -7.38115 | 112.79374 | 9 ft | 109 kts | 282° |
| 2026-04-28 05:54 | -7.37938 | 112.78386 | 31 ft | 174 kts | 280° |
| 2026-04-28 05:54 | -7.37718 | 112.77084 | 415 ft | 202 kts | 277° |
| 2026-04-28 05:54 | -7.37601 | 112.76105 | 666 ft | 221 kts | 275° |
| 2026-04-28 05:55 | -7.37390 | 112.73911 | 1113 ft | 246 kts | 275° |
| 2026-04-28 05:55 | -7.37280 | 112.72759 | 1342 ft | 254 kts | 274° |
| 2026-04-28 05:55 | -7.37097 | 112.70918 | 1568 ft | 275 kts | 276° |
| 2026-04-28 05:55 | -7.36757 | 112.69068 | 1776 ft | 264 kts | 283° |
| 2026-04-28 05:56 | -7.35967 | 112.67431 | 2009 ft | 260 kts | 311° |
| 2026-04-28 05:56 | -7.34445 | 112.66359 | 2401 ft | 262 kts | 340° |
| 2026-04-28 05:56 | -7.33235 | 112.66121 | 2660 ft | 264 kts | 359° |
| 2026-04-28 05:56 | -7.31455 | 112.66523 | 3036 ft | 266 kts | 28° |
| 2026-04-28 05:57 | -7.30067 | 112.67739 | 3412 ft | 267 kts | 57° |
| 2026-04-28 05:57 | -7.29161 | 112.69377 | 3792 ft | 269 kts | 63° |
| 2026-04-28 05:57 | -7.28302 | 112.71053 | 4166 ft | 270 kts | 63° |
| 2026-04-28 05:57 | -7.27427 | 112.72731 | 4552 ft | 272 kts | 62° |
| 2026-04-28 05:58 | -7.26529 | 112.74411 | 4920 ft | 273 kts | 61° |
| 2026-04-28 05:58 | -7.25615 | 112.76088 | 5294 ft | 274 kts | 61° |
| 2026-04-28 05:58 | -7.24687 | 112.77778 | 5663 ft | 276 kts | 60° |
| 2026-04-28 05:58 | -7.23754 | 112.79472 | 6046 ft | 278 kts | 60° |
| 2026-04-28 05:59 | -7.22816 | 112.81177 | 6418 ft | 279 kts | 60° |
| 2026-04-28 05:59 | -7.21872 | 112.82895 | 6799 ft | 281 kts | 60° |
| 2026-04-28 05:59 | -7.20989 | 112.84646 | 7167 ft | 282 kts | 71° |
| 2026-04-28 05:59 | -7.20763 | 112.86589 | 7548 ft | 283 kts | 97° |
| 2026-04-28 06:00 | -7.21386 | 112.88449 | 7935 ft | 283 kts | 118° |
| 2026-04-28 06:00 | -7.22356 | 112.90182 | 8308 ft | 285 kts | 121° |
| 2026-04-28 06:00 | -7.23371 | 112.91897 | 8684 ft | 286 kts | 121° |
| 2026-04-28 06:00 | -7.24386 | 112.93630 | 9060 ft | 288 kts | 120° |
| 2026-04-28 06:01 | -7.25376 | 112.95362 | 9431 ft | 290 kts | 120° |
| 2026-04-28 06:01 | -7.26367 | 112.97132 | 9813 ft | 294 kts | 119° |
| 2026-04-28 06:01 | -7.27408 | 112.99014 | 10198 ft | 319 kts | 119° |
| 2026-04-28 06:01 | -7.28506 | 113.01007 | 10585 ft | 329 kts | 119° |
| 2026-04-28 06:02 | -7.28802 | 113.01543 | 10678 ft | 329 kts | 119° |
| 2026-04-28 06:02 | -7.28978 | 113.01862 | 10741 ft | 329 kts | 119° |
| 2026-04-28 06:02 | -7.30093 | 113.03886 | 11123 ft | 332 kts | 119° |
| 2026-04-28 06:02 | -7.31215 | 113.05921 | 11498 ft | 333 kts | 119° |
| 2026-04-28 06:03 | -7.32346 | 113.07971 | 11868 ft | 335 kts | 119° |
| 2026-04-28 06:03 | -7.33466 | 113.10003 | 12235 ft | 337 kts | 119° |
| 2026-04-28 06:03 | -7.34610 | 113.12076 | 12616 ft | 339 kts | 119° |
| 2026-04-28 06:03 | -7.35774 | 113.14186 | 12997 ft | 341 kts | 119° |
| 2026-04-28 06:04 | -7.36955 | 113.16267 | 13372 ft | 343 kts | 122° |
| 2026-04-28 06:04 | -7.38353 | 113.18204 | 13748 ft | 344 kts | 130° |
| 2026-04-28 06:04 | -7.39951 | 113.20043 | 14132 ft | 356 kts | 132° |
| 2026-04-28 06:04 | -7.41626 | 113.21927 | 14507 ft | 373 kts | 132° |
| 2026-04-28 06:05 | -7.43421 | 113.23929 | 14897 ft | 389 kts | 132° |
| 2026-04-28 06:05 | -7.45249 | 113.25962 | 15272 ft | 400 kts | 133° |
| 2026-04-28 06:05 | -7.47079 | 113.27998 | 15639 ft | 378 kts | 133° |
| 2026-04-28 06:05 | -7.48775 | 113.29889 | 15992 ft | 348 kts | 133° |
| 2026-04-28 06:06 | -7.50330 | 113.31622 | 16346 ft | 319 kts | 133° |
| 2026-04-28 06:06 | -7.51747 | 113.33202 | 16695 ft | 290 kts | 133° |
| 2026-04-28 06:06 | -7.53033 | 113.34636 | 17037 ft | 260 kts | 133° |
| 2026-04-28 06:06 | -7.54207 | 113.35944 | 16914 ft | 250 kts | 133° |
| 2026-04-28 06:07 | -7.55390 | 113.37261 | 16596 ft | 257 kts | 133° |
| 2026-04-28 06:07 | -7.56589 | 113.38598 | 16580 ft | 255 kts | 133° |
| 2026-04-28 06:07 | -7.57766 | 113.39911 | 16610 ft | 252 kts | 133° |
| 2026-04-28 06:07 | -7.58938 | 113.41219 | 16560 ft | 252 kts | 133° |
| 2026-04-28 06:08 | -7.60169 | 113.42593 | 16702 ft | 276 kts | 133° |
| 2026-04-28 06:08 | -7.61505 | 113.44083 | 16970 ft | 298 kts | 133° |
| 2026-04-28 06:08 | -7.62937 | 113.45682 | 17337 ft | 315 kts | 133° |
| 2026-04-28 06:08 | -7.64427 | 113.47347 | 17726 ft | 331 kts | 133° |
| 2026-04-28 06:09 | -7.66016 | 113.49126 | 18107 ft | 347 kts | 133° |
| 2026-04-28 06:09 | -7.67669 | 113.50975 | 18492 ft | 362 kts | 133° |
| 2026-04-28 06:09 | -7.69382 | 113.52893 | 18869 ft | 372 kts | 132° |
| 2026-04-28 06:09 | -7.71117 | 113.54836 | 19251 ft | 374 kts | 132° |
| 2026-04-28 06:10 | -7.72862 | 113.56793 | 19624 ft | 376 kts | 132° |
| 2026-04-28 06:10 | -7.74618 | 113.58759 | 20000 ft | 378 kts | 132° |
| 2026-04-28 06:10 | -7.76384 | 113.60737 | 20374 ft | 381 kts | 132° |
| 2026-04-28 06:10 | -7.78137 | 113.62700 | 20747 ft | 383 kts | 132° |
| 2026-04-28 06:11 | -7.79942 | 113.64721 | 21126 ft | 385 kts | 132° |
| 2026-04-28 06:11 | -7.81743 | 113.66739 | 21503 ft | 387 kts | 132° |
| 2026-04-28 06:11 | -7.83529 | 113.68739 | 21851 ft | 390 kts | 133° |
| 2026-04-28 06:11 | -7.85373 | 113.70803 | 21988 ft | 391 kts | 133° |
| 2026-04-28 06:12 | -7.87192 | 113.72839 | 22007 ft | 391 kts | 132° |
| 2026-04-28 06:12 | -7.89006 | 113.74873 | 22007 ft | 391 kts | 132° |
| 2026-04-28 06:12 | -7.90803 | 113.76887 | 22007 ft | 391 kts | 132° |
| 2026-04-28 06:12 | -7.92621 | 113.78927 | 22007 ft | 391 kts | 132° |
| 2026-04-28 06:13 | -7.94433 | 113.80960 | 22007 ft | 391 kts | 132° |
| 2026-04-28 06:13 | -7.96253 | 113.83002 | 22007 ft | 391 kts | 132° |
| 2026-04-28 06:13 | -7.98069 | 113.85038 | 22007 ft | 391 kts | 132° |
| 2026-04-28 06:13 | -7.99891 | 113.87063 | 22006 ft | 390 kts | 135° |
| 2026-04-28 06:14 | -8.02029 | 113.88743 | 22006 ft | 390 kts | 151° |
| 2026-04-28 06:14 | -8.04526 | 113.89787 | 22007 ft | 389 kts | 166° |
| 2026-04-28 06:14 | -8.07195 | 113.90210 | 22007 ft | 389 kts | 174° |
| 2026-04-28 06:14 | -8.09875 | 113.90495 | 22007 ft | 389 kts | 174° |
| 2026-04-28 06:15 | -8.12566 | 113.90790 | 22007 ft | 389 kts | 174° |
| 2026-04-28 06:15 | -8.15245 | 113.91102 | 22007 ft | 386 kts | 173° |
| 2026-04-28 06:15 | -8.17910 | 113.91427 | 22007 ft | 389 kts | 173° |
| 2026-04-28 06:15 | -8.20600 | 113.91763 | 22007 ft | 389 kts | 173° |
| 2026-04-28 06:16 | -8.23283 | 113.92101 | 22007 ft | 389 kts | 173° |
| 2026-04-28 06:16 | -8.25968 | 113.92440 | 21856 ft | 389 kts | 173° |
| 2026-04-28 06:16 | -8.28649 | 113.92776 | 21617 ft | 387 kts | 173° |
| 2026-04-28 06:16 | -8.31309 | 113.93109 | 21366 ft | 385 kts | 173° |
| 2026-04-28 06:17 | -8.33961 | 113.93440 | 21112 ft | 384 kts | 173° |
| 2026-04-28 06:17 | -8.36608 | 113.93770 | 20864 ft | 382 kts | 173° |
| 2026-04-28 06:17 | -8.39235 | 113.94097 | 20614 ft | 381 kts | 173° |
| 2026-04-28 06:18 | -8.44482 | 113.94751 | 20105 ft | 378 kts | 173° |
| 2026-04-28 06:18 | -8.47079 | 113.95078 | 19863 ft | 376 kts | 172° |
| 2026-04-28 06:18 | -8.49673 | 113.95404 | 19618 ft | 375 kts | 172° |
| 2026-04-28 06:18 | -8.52227 | 113.95727 | 19366 ft | 373 kts | 172° |
| 2026-04-28 06:19 | -8.54806 | 113.96053 | 19114 ft | 372 kts | 172° |
| 2026-04-28 06:19 | -8.57324 | 113.96614 | 18770 ft | 371 kts | 158° |
| 2026-04-28 06:19 | -8.59550 | 113.97892 | 18390 ft | 369 kts | 140° |
| 2026-04-28 06:19 | -8.61292 | 113.99777 | 18006 ft | 368 kts | 123° |
| 2026-04-28 06:20 | -8.62401 | 114.02095 | 17637 ft | 367 kts | 108° |
| 2026-04-28 06:20 | -8.63184 | 114.04541 | 17259 ft | 365 kts | 108° |
| 2026-04-28 06:20 | -8.63955 | 114.06971 | 16883 ft | 362 kts | 108° |
| 2026-04-28 06:20 | -8.64740 | 114.09380 | 16506 ft | 360 kts | 109° |
| 2026-04-28 06:21 | -8.65538 | 114.11771 | 16133 ft | 358 kts | 109° |
| 2026-04-28 06:21 | -8.66341 | 114.14146 | 15759 ft | 356 kts | 109° |
| 2026-04-28 06:21 | -8.67144 | 114.16513 | 15381 ft | 354 kts | 109° |
| 2026-04-28 06:21 | -8.67941 | 114.18860 | 15007 ft | 352 kts | 109° |
| 2026-04-28 06:22 | -8.68731 | 114.21192 | 14638 ft | 350 kts | 109° |
| 2026-04-28 06:22 | -8.69517 | 114.23519 | 14272 ft | 348 kts | 109° |
| 2026-04-28 06:22 | -8.70295 | 114.25828 | 13885 ft | 346 kts | 109° |
| 2026-04-28 06:22 | -8.71067 | 114.28125 | 13507 ft | 344 kts | 109° |
| 2026-04-28 06:23 | -8.71833 | 114.30405 | 13133 ft | 343 kts | 109° |
| 2026-04-28 06:23 | -8.72597 | 114.32685 | 12751 ft | 339 kts | 109° |
| 2026-04-28 06:23 | -8.73335 | 114.34889 | 12379 ft | 326 kts | 109° |
| 2026-04-28 06:23 | -8.74051 | 114.37026 | 12002 ft | 314 kts | 109° |
| 2026-04-28 06:24 | -8.74739 | 114.39079 | 11617 ft | 303 kts | 109° |
| 2026-04-28 06:24 | -8.75404 | 114.41064 | 11248 ft | 296 kts | 110° |
| 2026-04-28 06:24 | -8.76068 | 114.43042 | 10876 ft | 298 kts | 110° |
| 2026-04-28 06:24 | -8.76731 | 114.45021 | 10500 ft | 295 kts | 110° |
| 2026-04-28 06:25 | -8.77386 | 114.46976 | 10124 ft | 293 kts | 110° |
| 2026-04-28 06:25 | -8.78037 | 114.48920 | 9749 ft | 289 kts | 110° |
| 2026-04-28 06:25 | -8.78674 | 114.50827 | 9304 ft | 285 kts | 110° |
| 2026-04-28 06:25 | -8.79304 | 114.52709 | 8804 ft | 281 kts | 110° |
| 2026-04-28 06:26 | -8.79924 | 114.54563 | 8301 ft | 276 kts | 110° |
| 2026-04-28 06:26 | -8.80536 | 114.56394 | 7802 ft | 273 kts | 110° |
| 2026-04-28 06:26 | -8.81138 | 114.58196 | 7303 ft | 269 kts | 110° |
| 2026-04-28 06:26 | -8.81733 | 114.59981 | 6803 ft | 266 kts | 110° |
| 2026-04-28 06:27 | -8.82323 | 114.61748 | 6303 ft | 264 kts | 110° |
| 2026-04-28 06:27 | -8.82904 | 114.63491 | 5814 ft | 262 kts | 110° |
| 2026-04-28 06:27 | -8.83484 | 114.65229 | 5279 ft | 266 kts | 110° |
| 2026-04-28 06:27 | -8.84087 | 114.67039 | 4754 ft | 265 kts | 109° |
| 2026-04-28 06:28 | -8.84352 | 114.68793 | 4564 ft | 250 kts | 86° |
| 2026-04-28 06:28 | -8.83931 | 114.70461 | 4174 ft | 245 kts | 68° |
| 2026-04-28 06:28 | -8.83261 | 114.72046 | 3722 ft | 244 kts | 67° |
| 2026-04-28 06:28 | -8.82585 | 114.73611 | 3274 ft | 242 kts | 67° |
| 2026-04-28 06:29 | -8.81927 | 114.75162 | 3053 ft | 241 kts | 68° |
| 2026-04-28 06:29 | -8.81263 | 114.76762 | 3017 ft | 255 kts | 68° |
| 2026-04-28 06:29 | -8.80578 | 114.78431 | 3006 ft | 256 kts | 68° |
| 2026-04-28 06:29 | -8.79899 | 114.80091 | 3006 ft | 255 kts | 68° |
| 2026-04-28 06:30 | -8.79223 | 114.81748 | 3006 ft | 256 kts | 68° |
| 2026-04-28 06:30 | -8.78544 | 114.83411 | 3006 ft | 256 kts | 68° |
| 2026-04-28 06:30 | -8.77868 | 114.85065 | 3006 ft | 256 kts | 68° |
| 2026-04-28 06:30 | -8.77187 | 114.86730 | 3004 ft | 252 kts | 68° |
| 2026-04-28 06:31 | -8.76530 | 114.88338 | 3012 ft | 253 kts | 68° |
| 2026-04-28 06:31 | -8.75847 | 114.90011 | 2998 ft | 252 kts | 69° |
| 2026-04-28 06:31 | -8.75449 | 114.91644 | 3003 ft | 229 kts | 87° |
| 2026-04-28 06:31 | -8.75474 | 114.93181 | 3006 ft | 215 kts | 94° |
| 2026-04-28 06:32 | -8.75537 | 114.94715 | 3006 ft | 218 kts | 92° |
| 2026-04-28 06:32 | -8.75575 | 114.96239 | 3004 ft | 218 kts | 91° |
| 2026-04-28 06:32 | -8.75594 | 114.97777 | 2854 ft | 219 kts | 90° |
| 2026-04-28 06:32 | -8.75600 | 114.99323 | 2452 ft | 223 kts | 90° |
| 2026-04-28 06:33 | -8.75575 | 115.00918 | 2001 ft | 229 kts | 88° |
| 2026-04-28 06:33 | -8.75501 | 115.02513 | 1748 ft | 224 kts | 87° |
| 2026-04-28 06:33 | -8.75420 | 115.04039 | 1727 ft | 208 kts | 86° |
| 2026-04-28 06:33 | -8.75348 | 115.05423 | 1701 ft | 186 kts | 87° |
| 2026-04-28 06:34 | -8.75286 | 115.06671 | 1705 ft | 171 kts | 87° |
| 2026-04-28 06:34 | -8.75230 | 115.07839 | 1703 ft | 161 kts | 87° |
| 2026-04-28 06:34 | -8.75181 | 115.08922 | 1707 ft | 153 kts | 87° |
| 2026-04-28 06:34 | -8.75134 | 115.10060 | 1642 ft | 166 kts | 87° |
| 2026-04-28 06:35 | -8.75090 | 115.11266 | 1208 ft | 177 kts | 86° |
| 2026-04-28 06:35 | -8.75045 | 115.12312 | 855 ft | 177 kts | 86° |
| 2026-04-28 06:35 | -8.74999 | 115.13304 | 570 ft | 175 kts | 86° |
| 2026-04-28 06:35 | -8.74933 | 115.14543 | 237 ft | 179 kts | 87° |
| 2026-04-28 06:36 | -8.74885 | 115.15787 | 33 ft | 175 kts | 86° |
| 2026-04-28 06:36 | -8.74839 | 115.16814 | 27 ft | 104 kts | 87° |
| 2026-04-28 06:36 | -8.74822 | 115.17245 | 27 ft | 17 kts | 91° |
| 2026-04-28 06:36 | -8.74800 | 115.17301 | 27 ft | 11 kts | 56° |
| 2026-04-28 06:37 | -8.74736 | 115.17315 | 29 ft | 7 kts | 353° |
| 2026-04-28 06:37 | -8.74674 | 115.17300 | 31 ft | 11 kts | 318° |
| 2026-04-28 06:37 | -8.74660 | 115.17227 | 32 ft | 11 kts | 277° |
| 2026-04-28 06:37 | -8.74666 | 115.17146 | 32 ft | 10 kts | 264° |
| 2026-04-28 06:38 | -8.74670 | 115.17049 | 31 ft | 17 kts | 274° |
| 2026-04-28 06:38 | -8.74667 | 115.16944 | 32 ft | 17 kts | 264° |
| 2026-04-28 06:38 | -8.74651 | 115.16866 | 32 ft | 9 kts | 343° |
| 2026-04-28 06:38 | -8.74627 | 115.16872 | 31 ft | 6 kts | 14° |
| 2026-04-28 06:39 | -8.74581 | 115.16868 | 32 ft | 10 kts | 351° |
| 2026-04-28 06:39 | -8.74557 | 115.16869 | 32 ft | 2 kts | 6° |
| 2026-04-28 06:39 | -8.74543 | 115.16867 | 33 ft | 0 kts | 360° |